Lone Star Executive Airport Houston US
ICAO: KCXO
IATA: CXO
Category: Medium
Scheduled Services: No

Elevation: 245 ft
TransAlt. 18000 ft.

Airport Communications:
HOUSTON APP/DEP:119.7
ASOS:118.325
CLNC DEL:119.55
RDO:122.2
CTAF/UNICOM:122.95

KCXO Zoom In..

If you have problems with the map follow the link
https://www.worldairports.se/pages/airport.php?
ICAO=KCXO

Runways:

(A) RW 01 length 5000 ft width 100 ft
---- / hdg 12

(B) RW 14 length 6000 ft width 150 ft
ILS 108.70 / hdg 140

(C) RW 19 length 5000 ft width 100 ft
---- / hdg 192

(D) RW 32 length 6000 ft width 150 ft
---- / hdg 320

Location; KCXO
Day. 26 / Time. 15.53 Zulu
* Altimeter: 30.33
* Temperature: 19° c. 66.2°f.
* Wind from: VRB° Speed 06 kn.
Dewpoint: 11° c.
Visibility: 10 Statute Miles.
Clouds: Clear (automated report).

KCXO 261553Z VRB06KT 10SM CLR 19/11 A3033 RMK AO2 SLP269 T01940106


Wind From VRB°
Speed 06 kn.

 
 
jpsmedia.com for Web Design worldairports.se 2019   terms of use